Asheville, NC

4:16 PM EDT on August 27, 2015 (GMT -0400)
Sherwood Heights | | Change Station
CLOSE
Current Station
Personal Weather Station
Location: Asheville, NC
Elevation: 2497 ft
Nearby Weather Stations

Elev 2497 ft 35.65 °N, 82.55 °W | Updated 4 seconds ago

Mostly Cloudy
Mostly Cloudy
81.3 °F
Feels Like 82 °F
N
4.0
Wind Variable Wind from NE
Gusts 8.0 mph

Today
High -- | Low -- °F
--% Chance of Precip.
Yesterday
High -- | Low -- °F
Precip. -- in
6:58 AM 8:04 PM
Waxing Gibbous, 95% visible
Pressure 30.04 in
Visibility 10.0 miles
Clouds Mostly Cloudy 4500 ft
Overcast 7000 ft
Heat Index 82 °F
Dew Point 59 °F
Humidity 47%
Rainfall 0.00 in
Snow Depth Not available.
UV 2 out of 12
Pollen 8.30 out of 12
Air Quality Not available.
Flu Activity Not available.
METAR KAVL 271954Z VRB05KT 10SM BKN045 OVC070 26/13 A3012 RMK AO2 SLP173 T02560133
Pressure 30.04 in
Visibility 10.0 miles
Clouds Mostly Cloudy 4500 ft
Overcast 7000 ft
Heat Index 82 °F
Dew Point 59 °F
Humidity 47%
Rainfall 0.00 in
Snow Depth Not available.
UV 2 out of 12
Pollen 8.30 out of 12
Air Quality Not available.
Flu Activity Not available.
METAR KAVL 271954Z VRB05KT 10SM BKN045 OVC070 26/13 A3012 RMK AO2 SLP173 T02560133

10-Day Weather Forecast

×

Almanac

Astronomy

Aug. 27, 2015 Rise Set
Actual Time
Civil Twilight
Nautical Twilight
Astronomical Twilight
Moon
Length of Visible Light
Length of Day
Tomorrow will be .
, % of the Moon is Illuminated

Today's Extremes

State Highs State Lows

Community

WunderPhotos

Upload Photos

1,850,206 photos uploaded!

WunderBlogs® & News

Nearby

Air Quality

  Air Quality AQ Index Pollutant
Not available.

Snow Depth

Station Depth Elevation

Earthquake Activity

City Distance Mag. Time & Date
Minimum magnitude displayed is 2.5.

Coastal Water Temperatures

Place Temperature

Stations

Nearby Weather Stations

Station Location Temp. Windchill Dew Point Humidity Wind Precip. Elev Updated Type